createdAt,value
2023-01-28T00:01:54.647Z,3.80
2023-01-28T00:04:21.401Z,3.50
2023-01-28T00:06:48.539Z,3.83
2023-01-28T00:09:15.307Z,3.93
2023-01-28T00:11:42.603Z,3.83
2023-01-28T00:14:13.552Z,3.97
2023-01-28T00:16:40.518Z,4.20
2023-01-28T00:19:07.424Z,5.03
2023-01-28T00:21:34.557Z,5.30
2023-01-28T00:24:01.689Z,4.63
2023-01-28T00:26:28.725Z,4.63
2023-01-28T00:28:55.486Z,4.93
2023-01-28T00:31:25.241Z,5.37
2023-01-28T00:33:54.577Z,4.80
2023-01-28T00:36:24.235Z,5.13
2023-01-28T00:38:56.985Z,5.57
2023-01-28T00:41:26.934Z,5.33
2023-01-28T00:43:54.438Z,4.60
2023-01-28T00:46:22.878Z,5.30
2023-01-28T00:48:49.958Z,4.73
2023-01-28T00:51:19.809Z,5.30
2023-01-28T00:53:47.489Z,4.87
2023-01-28T00:56:16.430Z,5.27
2023-01-28T00:58:43.555Z,5.20
2023-01-28T01:01:16.884Z,5.27
2023-01-28T01:03:44.459Z,4.83
2023-01-28T01:06:15.857Z,5.57
2023-01-28T01:08:50.340Z,6.60
2023-01-28T01:11:19.066Z,6.00
2023-01-28T01:13:54.925Z,6.27
2023-01-28T01:16:24.527Z,5.80
2023-01-28T01:18:52.796Z,5.87
2023-01-28T01:21:22.551Z,6.10
2023-01-28T01:23:49.802Z,6.40
2023-01-28T01:26:17.122Z,5.93
2023-01-28T01:28:44.451Z,6.03
2023-01-28T01:31:15.085Z,5.83
2023-01-28T01:33:43.276Z,6.50
2023-01-28T01:36:12.370Z,6.20
2023-01-28T01:38:40.953Z,6.10
2023-01-28T01:41:17.102Z,6.53
2023-01-28T01:43:53.263Z,6.37
2023-01-28T01:46:27.943Z,6.73
2023-01-28T01:48:57.983Z,5.93
2023-01-28T01:51:32.697Z,6.00
2023-01-28T01:54:00.619Z,4.90
2023-01-28T01:56:33.073Z,5.87
2023-01-28T01:59:00.711Z,5.63
2023-01-28T02:01:30.895Z,5.20
2023-01-28T02:04:03.073Z,6.20
2023-01-28T02:06:30.785Z,5.27
2023-01-28T02:08:57.821Z,4.80
2023-01-28T02:11:32.529Z,4.97
2023-01-28T02:14:02.782Z,4.67
2023-01-28T02:16:32.341Z,4.43
2023-01-28T02:18:59.293Z,5.07
2023-01-28T02:21:48.222Z,4.00
2023-01-28T02:24:33.428Z,4.70
2023-01-28T02:27:37.007Z,4.47
2023-01-28T02:30:07.124Z,4.87
2023-01-28T02:32:49.486Z,4.50
2023-01-28T02:35:24.863Z,3.97
2023-01-28T02:38:06.889Z,3.97
2023-01-28T02:41:01.147Z,4.00
2023-01-28T02:43:31.755Z,4.27
2023-01-28T02:46:17.879Z,4.47
2023-01-28T02:48:46.972Z,4.47
2023-01-28T02:51:39.267Z,4.17
2023-01-28T02:54:19.888Z,4.10
2023-01-28T02:57:22.417Z,4.40
2023-01-28T03:00:05.236Z,4.20
2023-01-28T03:02:54.297Z,4.27
2023-01-28T03:05:37.101Z,4.80
2023-01-28T03:08:26.610Z,4.57
2023-01-28T03:11:15.459Z,4.43
2023-01-28T03:14:03.243Z,4.60
2023-01-28T03:16:52.472Z,4.30
2023-01-28T03:19:38.836Z,4.33
2023-01-28T03:22:24.988Z,4.57
2023-01-28T03:25:11.968Z,4.50
2023-01-28T03:28:15.667Z,4.80
2023-01-28T03:31:12.772Z,5.20
2023-01-28T03:34:06.996Z,5.37
2023-01-28T03:36:49.998Z,4.80
2023-01-28T03:39:35.731Z,4.87
2023-01-28T03:42:04.250Z,4.80
2023-01-28T03:44:53.106Z,4.63
2023-01-28T03:47:23.426Z,4.27
2023-01-28T03:49:52.797Z,4.57
2023-01-28T03:52:28.001Z,4.13
2023-01-28T03:55:14.285Z,4.23
2023-01-28T03:57:42.194Z,4.80
2023-01-28T04:00:10.959Z,4.70
2023-01-28T04:02:43.840Z,4.43
2023-01-28T04:05:19.747Z,4.37
2023-01-28T04:07:52.812Z,4.30
2023-01-28T04:10:27.949Z,4.30
2023-01-28T04:12:59.376Z,4.73
2023-01-28T04:15:26.543Z,4.50
2023-01-28T04:17:54.924Z,4.40
2023-01-28T04:20:27.132Z,4.37
2023-01-28T04:22:54.883Z,4.63
2023-01-28T04:25:23.716Z,4.53
2023-01-28T04:27:50.515Z,4.97
2023-01-28T04:30:22.583Z,4.33
2023-01-28T04:33:07.991Z,3.53
2023-01-28T04:35:46.002Z,3.67
2023-01-28T04:38:37.010Z,4.03
2023-01-28T04:41:22.209Z,4.23
2023-01-28T04:43:49.806Z,4.00
2023-01-28T04:46:49.081Z,3.87
2023-01-28T04:49:27.118Z,3.93
2023-01-28T04:52:12.460Z,4.03
2023-01-28T04:55:03.252Z,4.00
2023-01-28T04:57:31.167Z,4.03
2023-01-28T04:59:58.842Z,4.40
2023-01-28T05:02:27.196Z,4.63
2023-01-28T05:04:54.071Z,4.47
2023-01-28T05:07:51.849Z,3.90
2023-01-28T05:10:19.644Z,4.53
2023-01-28T05:12:47.768Z,4.27
2023-01-28T05:15:19.589Z,3.67
2023-01-28T05:17:47.962Z,4.17
2023-01-28T05:20:16.885Z,4.23
2023-01-28T05:22:46.867Z,4.33
2023-01-28T05:25:20.255Z,4.27
2023-01-28T05:27:51.852Z,4.13
2023-01-28T05:30:20.147Z,4.70
2023-01-28T05:32:47.275Z,4.37
2023-01-28T05:35:17.308Z,4.50
2023-01-28T05:37:44.747Z,4.23
2023-01-28T05:40:12.884Z,4.60
2023-01-28T05:42:40.147Z,4.20
2023-01-28T05:45:23.180Z,4.97
2023-01-28T05:48:09.396Z,4.47
2023-01-28T05:50:43.438Z,4.30
2023-01-28T05:53:36.666Z,4.43
2023-01-28T05:56:03.971Z,3.80
2023-01-28T05:58:32.889Z,4.07
2023-01-28T06:01:02.891Z,4.03
2023-01-28T06:03:38.546Z,3.80
2023-01-28T06:06:05.971Z,4.10
2023-01-28T06:08:32.987Z,4.03
2023-01-28T06:11:00.356Z,4.13
2023-01-28T06:13:32.732Z,4.00
2023-01-28T06:16:25.771Z,4.10
2023-01-28T06:19:11.625Z,4.60
2023-01-28T06:21:38.453Z,4.50
2023-01-28T06:24:05.913Z,4.57
2023-01-28T06:26:32.676Z,4.63
2023-01-28T06:28:59.913Z,4.10
2023-01-28T06:31:26.725Z,4.03
2023-01-28T06:33:53.754Z,4.43
2023-01-28T06:36:20.471Z,4.27
2023-01-28T06:38:47.577Z,3.67
2023-01-28T06:41:14.300Z,4.40
2023-01-28T06:43:41.301Z,3.83
2023-01-28T06:46:08.193Z,4.03
2023-01-28T06:48:35.199Z,3.90
2023-01-28T06:51:01.998Z,4.10
2023-01-28T06:53:29.117Z,4.00
2023-01-28T06:55:56.934Z,4.00
2023-01-28T06:58:24.078Z,4.20
2023-01-28T07:00:50.849Z,4.27
2023-01-28T07:03:17.874Z,3.90
2023-01-28T07:05:44.806Z,3.50
2023-01-28T07:08:11.814Z,3.47
2023-01-28T07:10:38.596Z,3.57
2023-01-28T07:13:05.650Z,4.07
2023-01-28T07:15:32.388Z,3.20
2023-01-28T07:17:59.790Z,4.10
2023-01-28T07:20:26.745Z,3.77
2023-01-28T07:22:53.777Z,4.03
2023-01-28T07:25:20.694Z,3.40
2023-01-28T07:27:52.777Z,4.30
2023-01-28T07:30:21.134Z,4.07
2023-01-28T07:32:53.765Z,3.80
2023-01-28T07:35:20.761Z,3.90
2023-01-28T07:37:58.880Z,4.43
2023-01-28T07:40:27.431Z,3.47
2023-01-28T07:42:56.269Z,3.73
2023-01-28T07:45:26.039Z,4.43
2023-01-28T07:48:01.852Z,4.60
2023-01-28T07:50:30.215Z,4.87
2023-01-28T07:52:57.732Z,4.57
2023-01-28T07:55:24.817Z,4.17
2023-01-28T07:57:57.982Z,4.80
2023-01-28T08:00:26.766Z,4.57
2023-01-28T08:02:58.540Z,4.33
2023-01-28T08:05:28.274Z,3.90
2023-01-28T08:07:55.542Z,3.83
2023-01-28T08:10:22.333Z,4.57
2023-01-28T08:12:56.606Z,3.93
2023-01-28T08:15:23.524Z,4.40
2023-01-28T08:17:51.005Z,4.50
2023-01-28T08:20:18.059Z,5.13
2023-01-28T08:22:45.296Z,4.70
2023-01-28T08:25:12.223Z,5.07
2023-01-28T08:27:39.679Z,4.60
2023-01-28T08:30:09.020Z,4.00
2023-01-28T08:32:36.472Z,4.03
2023-01-28T08:35:04.053Z,4.50
2023-01-28T08:37:31.178Z,4.43
2023-01-28T08:39:57.868Z,4.63
2023-01-28T08:42:24.917Z,4.57
2023-01-28T08:44:51.723Z,4.33
2023-01-28T08:47:18.777Z,4.60
2023-01-28T08:49:46.183Z,4.07
2023-01-28T08:52:13.238Z,4.87
2023-01-28T08:54:39.945Z,4.27
2023-01-28T08:57:06.926Z,4.30
2023-01-28T08:59:33.658Z,5.03
2023-01-28T09:02:00.718Z,5.30
2023-01-28T09:04:27.695Z,5.47
2023-01-28T09:06:54.814Z,5.43
2023-01-28T09:09:21.601Z,5.70
2023-01-28T09:11:48.592Z,5.63
2023-01-28T09:14:15.594Z,6.03
2023-01-28T09:16:42.795Z,5.10
2023-01-28T09:19:10.734Z,5.47
2023-01-28T09:21:39.911Z,4.23
2023-01-28T09:24:11.625Z,5.20
2023-01-28T09:26:38.720Z,5.00
2023-01-28T09:29:05.428Z,5.00
2023-01-28T09:31:33.061Z,4.90
2023-01-28T09:33:59.846Z,5.23
2023-01-28T09:36:26.946Z,5.87
2023-01-28T09:38:53.664Z,6.40
2023-01-28T09:41:27.156Z,7.00
2023-01-28T09:44:06.216Z,7.30
2023-01-28T09:46:37.079Z,8.47
2023-01-28T09:49:18.182Z,6.90
2023-01-28T09:51:53.842Z,8.17
2023-01-28T09:54:43.796Z,10.70
2023-01-28T09:57:22.562Z,7.60
2023-01-28T09:59:49.791Z,7.17
2023-01-28T10:02:51.948Z,7.77
2023-01-28T10:05:31.296Z,5.80
2023-01-28T10:08:17.131Z,6.60
2023-01-28T10:11:20.720Z,5.80
2023-01-28T10:13:56.795Z,6.17
2023-01-28T10:16:51.994Z,8.53
2023-01-28T10:19:27.537Z,7.17
2023-01-28T10:22:02.793Z,5.77
2023-01-28T10:24:35.976Z,5.63
2023-01-28T10:27:09.776Z,5.27
2023-01-28T10:29:39.862Z,5.13
2023-01-28T10:32:19.007Z,4.93
2023-01-28T10:34:46.193Z,5.53
2023-01-28T10:37:16.011Z,6.10
2023-01-28T10:39:44.481Z,5.77
2023-01-28T10:42:20.581Z,4.07
2023-01-28T10:44:49.127Z,4.13
2023-01-28T10:47:24.929Z,3.77
2023-01-28T10:49:59.766Z,3.47
2023-01-28T10:52:26.865Z,3.57
2023-01-28T10:55:05.737Z,2.67
2023-01-28T10:57:42.457Z,2.43
2023-01-28T11:00:28.093Z,2.53
2023-01-28T11:02:55.173Z,2.80
2023-01-28T11:05:27.565Z,2.43
2023-01-28T11:08:16.719Z,2.90
2023-01-28T11:10:45.174Z,2.77
2023-01-28T11:13:18.171Z,3.23
2023-01-28T11:15:55.234Z,3.07
2023-01-28T11:18:24.889Z,3.50
2023-01-28T11:21:07.368Z,3.40
2023-01-28T11:23:49.612Z,3.60
2023-01-28T11:26:21.554Z,3.70
2023-01-28T11:28:49.211Z,3.20
2023-01-28T11:31:18.793Z,3.30
2023-01-28T11:33:50.783Z,3.10
2023-01-28T11:36:20.544Z,2.87
2023-01-28T11:38:48.577Z,3.20
2023-01-28T11:41:16.442Z,3.27
2023-01-28T11:43:45.724Z,3.33
2023-01-28T11:46:18.965Z,3.10
2023-01-28T11:49:00.926Z,3.47
2023-01-28T11:51:43.562Z,3.37
2023-01-28T11:54:22.338Z,5.80
2023-01-28T11:57:08.235Z,6.07
2023-01-28T11:59:56.669Z,6.67
2023-01-28T12:02:45.191Z,5.00
2023-01-28T12:05:21.171Z,5.17
2023-01-28T12:08:20.719Z,4.30
2023-01-28T12:11:08.347Z,5.03
2023-01-28T12:13:46.736Z,4.57
2023-01-28T12:16:25.656Z,4.40
2023-01-28T12:18:55.618Z,4.33
2023-01-28T12:21:37.301Z,3.90
2023-01-28T12:24:14.117Z,4.70
2023-01-28T12:26:52.623Z,5.33
2023-01-28T12:29:53.531Z,5.00
2023-01-28T12:32:31.554Z,6.93
2023-01-28T12:35:22.360Z,5.47
2023-01-28T12:38:07.474Z,7.20
2023-01-28T12:41:16.282Z,9.97
2023-01-28T12:44:07.369Z,7.20
2023-01-28T12:46:42.818Z,6.07
2023-01-28T12:49:16.954Z,4.87
2023-01-28T12:52:07.022Z,5.20
2023-01-28T12:54:55.380Z,4.57
2023-01-28T12:57:28.387Z,7.20
2023-01-28T13:00:28.146Z,6.17
2023-01-28T13:03:20.752Z,8.93
2023-01-28T13:05:54.171Z,6.53
2023-01-28T13:08:26.918Z,7.20
2023-01-28T13:10:57.377Z,10.53
2023-01-28T13:13:33.799Z,8.97
2023-01-28T13:16:02.359Z,4.30
2023-01-28T13:18:40.567Z,5.13
2023-01-28T13:21:12.039Z,3.43
2023-01-28T13:23:40.715Z,3.03
2023-01-28T13:26:19.689Z,3.53
2023-01-28T13:28:49.477Z,3.87
2023-01-28T13:31:36.438Z,3.50
2023-01-28T13:34:05.817Z,4.00
2023-01-28T13:36:46.611Z,3.33
2023-01-28T13:39:14.173Z,5.20
2023-01-28T13:41:46.703Z,6.37
2023-01-28T13:44:25.571Z,5.30
2023-01-28T13:46:55.059Z,3.47
2023-01-28T13:49:37.421Z,3.47
2023-01-28T13:52:10.459Z,2.83
2023-01-28T13:55:06.566Z,4.00
2023-01-28T13:57:45.532Z,3.80
2023-01-28T14:00:43.354Z,4.97
2023-01-28T14:03:58.229Z,4.93
2023-01-28T14:06:48.111Z,2.63
2023-01-28T14:09:42.370Z,2.10
2023-01-28T14:12:44.223Z,1.57
2023-01-28T14:15:41.807Z,2.10
2023-01-28T14:18:25.632Z,2.67
2023-01-28T14:20:56.389Z,2.60
2023-01-28T14:23:26.613Z,3.10
2023-01-28T14:25:53.312Z,3.77
2023-01-28T14:29:00.012Z,9.97
2023-01-28T14:31:32.258Z,5.53
2023-01-28T14:34:31.100Z,7.73
2023-01-28T14:37:04.872Z,10.20
2023-01-28T14:39:44.832Z,9.23
2023-01-28T14:42:19.369Z,5.10
2023-01-28T14:44:51.532Z,4.03
2023-01-28T14:47:30.172Z,7.23
2023-01-28T14:50:04.383Z,8.10
2023-01-28T14:52:33.937Z,10.67
2023-01-28T14:55:14.731Z,10.73
2023-01-28T14:57:51.262Z,12.30
2023-01-28T15:00:20.405Z,10.67
2023-01-28T15:02:47.219Z,7.73
2023-01-28T15:05:24.184Z,7.07
2023-01-28T15:07:51.547Z,7.93
2023-01-28T15:10:25.849Z,8.43
2023-01-28T15:12:57.229Z,9.30
2023-01-28T15:15:30.407Z,10.43
2023-01-28T15:18:02.510Z,11.40
2023-01-28T15:20:30.225Z,18.37
2023-01-28T15:22:57.399Z,20.23
2023-01-28T15:25:28.222Z,18.60
2023-01-28T15:27:58.881Z,13.03
2023-01-28T15:30:29.166Z,9.97
2023-01-28T15:33:13.158Z,6.90
2023-01-28T15:35:50.786Z,18.43
2023-01-28T15:38:18.107Z,8.93
2023-01-28T15:40:55.444Z,5.80
2023-01-28T15:43:25.774Z,11.97
2023-01-28T15:45:55.995Z,6.43
2023-01-28T15:48:26.519Z,4.13
2023-01-28T15:51:08.862Z,5.17
2023-01-28T15:53:43.353Z,4.97
2023-01-28T15:56:12.884Z,4.93
2023-01-28T15:58:43.283Z,5.20
2023-01-28T16:01:10.404Z,3.80
2023-01-28T16:03:40.020Z,3.03
2023-01-28T16:06:18.598Z,3.50
2023-01-28T16:09:00.251Z,3.47
2023-01-28T16:11:44.554Z,3.70
2023-01-28T16:14:35.205Z,3.73
2023-01-28T16:17:02.375Z,3.57
2023-01-28T16:19:50.767Z,4.17
2023-01-28T16:22:35.602Z,4.17
2023-01-28T16:25:03.989Z,4.33
2023-01-28T16:27:31.423Z,5.03
2023-01-28T16:29:58.248Z,4.57
2023-01-28T16:32:39.159Z,11.17
2023-01-28T16:35:23.927Z,11.07
2023-01-28T16:37:51.249Z,18.70
2023-01-28T16:40:21.202Z,12.83
2023-01-28T16:42:49.134Z,8.97
2023-01-28T16:45:19.573Z,14.20
2023-01-28T16:47:47.085Z,9.17
2023-01-28T16:50:15.286Z,8.00
2023-01-28T16:52:44.382Z,8.80
2023-01-28T16:55:14.081Z,6.80
2023-01-28T16:57:42.213Z,5.70
2023-01-28T17:00:17.281Z,5.03
2023-01-28T17:02:44.738Z,5.17
2023-01-28T17:05:12.167Z,4.67
2023-01-28T17:07:39.259Z,4.47
2023-01-28T17:10:06.510Z,5.87
2023-01-28T17:12:33.600Z,5.77
2023-01-28T17:15:00.567Z,6.53
2023-01-28T17:17:27.833Z,6.77
2023-01-28T17:19:54.554Z,8.83
2023-01-28T17:22:21.613Z,16.73
2023-01-28T17:24:48.342Z,15.60
2023-01-28T17:27:15.375Z,10.27
2023-01-28T17:29:42.107Z,7.53
2023-01-28T17:32:09.339Z,6.93
2023-01-28T17:34:36.192Z,6.60
2023-01-28T17:37:03.632Z,6.67
2023-01-28T17:39:30.398Z,8.30
2023-01-28T17:41:57.495Z,6.63
2023-01-28T17:44:24.378Z,7.07
2023-01-28T17:46:51.503Z,8.83
2023-01-28T17:49:18.286Z,7.30
2023-01-28T17:51:45.392Z,7.87
2023-01-28T17:54:12.260Z,7.37
2023-01-28T17:56:39.381Z,8.90
2023-01-28T17:59:06.988Z,9.07
2023-01-28T18:01:35.728Z,8.20
2023-01-28T18:04:03.286Z,8.17
2023-01-28T18:06:35.288Z,9.03
2023-01-28T18:09:02.675Z,8.40
2023-01-28T18:11:30.430Z,8.23
2023-01-28T18:13:57.269Z,8.47
2023-01-28T18:16:24.744Z,9.33
2023-01-28T18:18:51.518Z,8.87
2023-01-28T18:21:51.214Z,8.83
2023-01-28T18:24:19.110Z,9.83
2023-01-28T18:26:46.230Z,8.97
2023-01-28T18:29:16.876Z,9.80
2023-01-28T18:31:44.572Z,10.10
2023-01-28T18:34:11.642Z,10.63
2023-01-28T18:36:38.657Z,11.63
2023-01-28T18:39:05.883Z,10.90
2023-01-28T18:41:32.927Z,11.73
2023-01-28T18:43:59.631Z,12.80
2023-01-28T18:46:26.698Z,14.30
2023-01-28T18:48:53.396Z,14.63
2023-01-28T18:51:30.156Z,12.20
2023-01-28T18:54:02.793Z,14.33
2023-01-28T18:56:30.752Z,13.77
2023-01-28T18:59:02.699Z,13.57
2023-01-28T19:01:31.007Z,12.37
2023-01-28T19:03:58.894Z,13.43
2023-01-28T19:06:27.864Z,15.07
2023-01-28T19:08:59.581Z,12.70
2023-01-28T19:11:28.952Z,13.90
2023-01-28T19:13:56.437Z,13.30
2023-01-28T19:16:24.742Z,14.80
2023-01-28T19:18:56.766Z,14.60
2023-01-28T19:21:25.061Z,14.53
2023-01-28T19:24:01.125Z,13.87
2023-01-28T19:26:30.689Z,14.30
2023-01-28T19:28:57.961Z,14.50
2023-01-28T19:31:25.948Z,14.90
2023-01-28T19:33:55.785Z,14.27
2023-01-28T19:36:24.600Z,13.27
2023-01-28T19:38:52.119Z,13.67
2023-01-28T19:41:19.517Z,15.03
2023-01-28T19:43:46.497Z,14.17
2023-01-28T19:46:16.648Z,14.20
2023-01-28T19:48:44.853Z,15.17
2023-01-28T19:51:13.253Z,14.63
2023-01-28T19:53:40.963Z,13.40
2023-01-28T19:56:11.016Z,13.53
2023-01-28T19:58:40.303Z,13.77
2023-01-28T20:01:16.019Z,14.20
2023-01-28T20:03:44.095Z,13.80
2023-01-28T20:06:16.674Z,13.20
2023-01-28T20:08:44.190Z,12.70
2023-01-28T20:11:15.204Z,13.63
2023-01-28T20:13:44.669Z,13.40
2023-01-28T20:16:20.772Z,13.17
2023-01-28T20:18:50.951Z,14.33
2023-01-28T20:21:19.155Z,13.07
2023-01-28T20:23:50.580Z,13.40
2023-01-28T20:26:21.204Z,12.60
2023-01-28T20:28:48.840Z,13.37
2023-01-28T20:31:16.505Z,13.23
2023-01-28T20:33:43.304Z,12.90
2023-01-28T20:36:12.972Z,12.33
2023-01-28T20:38:41.935Z,13.30
2023-01-28T20:41:11.886Z,12.33
2023-01-28T20:43:42.204Z,12.57
2023-01-28T20:46:15.507Z,12.27
2023-01-28T20:48:42.554Z,12.80
2023-01-28T20:51:14.859Z,14.63
2023-01-28T20:53:42.697Z,15.70
2023-01-28T20:56:11.436Z,14.43
2023-01-28T20:58:38.448Z,13.57
2023-01-28T21:01:05.756Z,13.00
2023-01-28T21:03:33.043Z,13.40
2023-01-28T21:06:00.866Z,13.33
2023-01-28T21:08:27.641Z,13.33
2023-01-28T21:10:55.082Z,14.07
2023-01-28T21:13:21.929Z,14.37
2023-01-28T21:15:54.295Z,14.40
2023-01-28T21:18:22.181Z,12.90
2023-01-28T21:20:50.296Z,13.47
2023-01-28T21:23:17.139Z,13.93
2023-01-28T21:25:47.578Z,12.97
2023-01-28T21:28:14.410Z,13.07
2023-01-28T21:30:42.271Z,13.27
2023-01-28T21:33:09.567Z,11.43
2023-01-28T21:35:42.219Z,11.57
2023-01-28T21:38:09.558Z,13.73
2023-01-28T21:40:37.047Z,11.33
2023-01-28T21:43:04.284Z,11.60
2023-01-28T21:45:31.384Z,11.17
2023-01-28T21:47:58.215Z,12.10
2023-01-28T21:50:25.421Z,13.77
2023-01-28T21:52:52.296Z,13.13
2023-01-28T21:55:19.570Z,13.33
2023-01-28T21:57:46.357Z,12.97
2023-01-28T22:00:13.837Z,13.03
2023-01-28T22:02:40.945Z,12.50
2023-01-28T22:05:08.209Z,13.00
2023-01-28T22:07:34.980Z,13.03
2023-01-28T22:10:02.039Z,11.80
2023-01-28T22:12:29.004Z,12.30
2023-01-28T22:14:56.446Z,12.37
2023-01-28T22:17:23.282Z,13.17
2023-01-28T22:19:50.389Z,13.53
2023-01-28T22:22:17.924Z,12.60
2023-01-28T22:24:45.084Z,13.63
2023-01-28T22:27:11.899Z,12.97
2023-01-28T22:29:38.888Z,13.83
2023-01-28T22:32:05.862Z,13.73
2023-01-28T22:34:33.017Z,13.43
2023-01-28T22:36:59.761Z,14.00
2023-01-28T22:39:26.838Z,13.47
2023-01-28T22:41:53.569Z,13.57
2023-01-28T22:44:20.670Z,12.87
2023-01-28T22:46:48.219Z,13.60
2023-01-28T22:49:15.518Z,13.80
2023-01-28T22:51:42.619Z,13.60
2023-01-28T22:54:11.390Z,13.90
2023-01-28T22:56:38.398Z,13.43
2023-01-28T22:59:05.483Z,14.40
2023-01-28T23:01:33.204Z,14.23
2023-01-28T23:04:00.526Z,13.93
2023-01-28T23:06:28.604Z,14.10
2023-01-28T23:08:56.474Z,13.63
2023-01-28T23:11:27.965Z,13.97
2023-01-28T23:14:19.878Z,14.50
2023-01-28T23:17:05.514Z,14.90
2023-01-28T23:19:51.149Z,13.43
2023-01-28T23:22:43.849Z,14.37
2023-01-28T23:25:11.170Z,13.47
2023-01-28T23:27:38.220Z,14.47
2023-01-28T23:30:10.026Z,14.63
2023-01-28T23:32:48.195Z,15.13
2023-01-28T23:35:16.717Z,13.70
2023-01-28T23:37:43.565Z,14.23
2023-01-28T23:40:11.331Z,15.73
2023-01-28T23:42:38.499Z,13.60
2023-01-28T23:45:06.270Z,14.53
2023-01-28T23:47:33.176Z,14.60
2023-01-28T23:50:00.555Z,13.30
2023-01-28T23:52:27.374Z,15.07
2023-01-28T23:54:54.503Z,15.27
2023-01-28T23:57:21.249Z,14.57
2023-01-28T23:59:48.266Z,15.40
